Time;durP1;ratioP1;P1;durP2;ratioP2;P2;SDS_P1;SDS_P2;PMS_P1;PMS_P2;Temp;Humidity;BMP_temperature;BMP_pressure;BME280_temperature;BME280_humidity;BME280_pressure;Samples;Min_cycle;Max_cycle;Signal;HPM_P1;HPM_P2
2023/03/29 00:00:45;;;;;;;5.47;2.60;;;;;;;-4.18;61.61;100021.19;1787734;78;21044;-57
2023/03/29 00:03:13;;;;;;;5.55;2.62;;;;;;;-4.21;61.75;100017.31;1792310;79;21472;-58
2023/03/29 00:05:40;;;;;;;8.08;3.42;;;;;;;-4.22;61.58;100018.16;1791023;78;21033;-59
2023/03/29 00:08:07;;;;;;;4.78;2.58;;;;;;;-4.28;61.63;100017.22;1788137;78;21497;-59
2023/03/29 00:10:34;;;;;;;6.78;3.08;;;;;;;-4.32;61.84;100019.25;1791109;79;20964;-58
2023/03/29 00:13:02;;;;;;;4.65;2.72;;;;;;;-4.33;62.03;100012.87;1792797;78;20985;-59
2023/03/29 00:15:28;;;;;;;;;;;;;;;-4.36;62.17;100012.81;1792379;78;21555;-58
2023/03/29 00:17:54;;;;;;;8.95;3.77;;;;;;;-4.40;62.58;100013.16;1787445;78;20213;-59
2023/03/29 00:20:21;;;;;;;7.60;3.70;;;;;;;-4.42;62.48;100023.77;1790064;78;20982;-58
2023/03/29 00:22:47;;;;;;;12.47;4.43;;;;;;;-4.41;62.69;100020.37;1790375;78;21081;-58
2023/03/29 00:25:13;;;;;;;8.33;3.35;;;;;;;-4.40;63.09;100020.80;1791863;78;21088;-58
2023/03/29 00:27:40;;;;;;;10.90;3.92;;;;;;;-4.35;62.95;100023.02;1788219;78;21037;-59
2023/03/29 00:30:08;;;;;;;7.60;3.30;;;;;;;-4.33;62.81;100026.47;1789145;78;20993;-58
2023/03/29 00:32:35;;;;;;;8.48;3.58;;;;;;;-4.35;62.73;100025.57;1809139;77;21023;-58
2023/03/29 00:35:03;;;;;;;4.25;2.77;;;;;;;-4.34;63.48;100020.94;1813406;77;20988;-58
2023/03/29 00:37:29;;;;;;;7.37;3.47;;;;;;;-4.32;64.05;100025.62;1763350;79;20971;-58
2023/03/29 00:39:57;;;;;;;8.33;3.52;;;;;;;-4.27;63.43;100020.19;1774269;79;20995;-58
2023/03/29 00:42:24;;;;;;;12.37;3.67;;;;;;;-4.30;63.48;100020.14;1816694;77;20936;-59
2023/03/29 00:44:58;;;;;;;;;;;;;;;-4.34;64.36;100020.94;1817711;77;21009;-59
2023/03/29 00:47:37;;;;;;;5.33;3.30;;;;;;;-4.34;63.81;100029.86;1782691;79;20092;-58
2023/03/29 00:50:07;;;;;;;5.50;3.20;;;;;;;-4.32;63.52;100019.67;1819193;77;21125;-59
2023/03/29 00:52:37;;;;;;;6.87;3.65;;;;;;;-4.29;64.85;100023.55;1810363;78;21192;-58
2023/03/29 00:55:08;;;;;;;7.35;3.62;;;;;;;-4.29;64.67;100024.82;1818710;78;21476;-58
2023/03/29 00:57:38;;;;;;;8.55;3.62;;;;;;;-4.29;64.12;100020.58;1774854;79;21069;-59
2023/03/29 01:00:11;;;;;;;6.72;3.42;;;;;;;-4.31;64.84;100017.16;1803642;78;20989;-59
2023/03/29 01:02:40;;;;;;;7.15;3.10;;;;;;;-4.30;64.73;100017.59;1805067;77;20958;-59
2023/03/29 01:05:17;;;;;;;5.87;3.25;;;;;;;-4.34;64.17;100019.66;1777689;79;20921;-59
2023/03/29 01:07:47;;;;;;;9.17;3.17;;;;;;;-4.36;64.22;100009.84;1819096;77;21149;-58
2023/03/29 01:10:17;;;;;;;7.78;3.05;;;;;;;-4.37;64.42;100006.86;1823313;76;21032;-58
2023/03/29 01:12:46;;;;;;;7.37;2.83;;;;;;;-4.36;64.24;100006.45;1814099;77;21466;-58
2023/03/29 01:15:16;;;;;;;5.30;2.65;;;;;;;-4.39;64.15;100003.42;1810289;78;20989;-59
2023/03/29 01:17:48;;;;;;;6.33;3.00;;;;;;;-4.41;64.18;100003.80;1804239;79;20978;-59
2023/03/29 01:20:29;;;;;;;6.22;3.55;;;;;;;-4.43;64.22;100001.63;1789212;79;20973;-58
2023/03/29 01:23:17;;;;;;;6.83;3.35;;;;;;;-4.46;64.95;100004.13;1777568;78;21042;-59
2023/03/29 01:25:56;;;;;;;8.55;3.85;;;;;;;-4.48;66.52;100003.66;1811063;78;20931;-58
2023/03/29 01:28:27;;;;;;;4.75;2.87;;;;;;;-4.47;67.31;99999.88;1809968;79;21553;-58
2023/03/29 01:30:57;;;;;;;6.12;3.65;;;;;;;-4.44;66.92;99992.28;1813938;78;21071;-58
2023/03/29 01:33:27;;;;;;;5.45;3.35;;;;;;;-4.39;67.82;99991.95;1809643;77;21017;-58
2023/03/29 01:36:14;;;;;;;5.87;3.20;;;;;;;-4.37;66.60;99994.13;1776512;79;21044;-59
2023/03/29 01:38:44;;;;;;;6.55;3.10;;;;;;;-4.39;66.24;99988.55;1808101;78;20954;-58
2023/03/29 01:41:11;;;;;;;6.22;2.85;;;;;;;-4.45;66.37;99989.30;1810625;77;21028;-58
2023/03/29 01:43:42;;;;;;;;;;;;;;;-4.51;65.60;99987.89;1812548;78;21000;-58
2023/03/29 01:46:27;;;;;;;4.85;2.58;;;;;;;-4.53;65.56;99989.58;1809158;78;20191;-58
2023/03/29 01:49:02;;;;;;;4.17;2.27;;;;;;;-4.54;65.33;99984.02;1811265;78;21965;-58
2023/03/29 01:51:38;;;;;;;7.65;2.58;;;;;;;-4.59;65.20;99989.05;1805730;79;20938;-58
2023/03/29 01:54:14;;;;;;;5.50;2.80;;;;;;;-4.61;65.19;99991.13;1807761;79;20930;-59
2023/03/29 01:56:44;;;;;;;5.35;2.90;;;;;;;-4.62;65.47;99986.84;1809305;77;21034;-59
2023/03/29 01:59:14;;;;;;;5.33;2.75;;;;;;;-4.60;65.69;99985.19;1807490;77;20926;-58
2023/03/29 02:01:47;;;;;;;4.58;2.77;;;;;;;-4.64;65.18;99985.98;1802827;79;20990;-58
2023/03/29 02:04:15;;;;;;;10.75;2.92;;;;;;;-4.68;65.24;99982.92;1807013;78;21045;-58
2023/03/29 02:06:44;;;;;;;6.03;2.35;;;;;;;-4.69;65.33;99985.03;1803708;78;20946;-58
2023/03/29 02:09:11;;;;;;;5.90;2.37;;;;;;;-4.72;65.54;99981.59;1806232;79;20938;-59
2023/03/29 02:11:37;;;;;;;;;;;;;;;-4.74;65.37;99987.06;1808349;78;21568;-59
2023/03/29 02:14:04;;;;;;;3.50;2.27;;;;;;;-4.79;65.40;99995.06;1801693;78;20097;-58
2023/03/29 02:16:36;;;;;;;8.43;2.67;;;;;;;-4.84;65.10;99988.16;1811227;78;21473;-59
2023/03/29 02:19:03;;;;;;;6.65;3.35;;;;;;;-4.89;65.38;99993.58;1811304;79;21271;-59
2023/03/29 02:21:41;;;;;;;3.62;2.42;;;;;;;-4.91;65.65;99987.16;1807611;79;21004;-59
2023/03/29 02:24:12;;;;;;;9.65;3.15;;;;;;;-4.89;66.64;99987.20;1809811;77;21086;-59
2023/03/29 02:26:39;;;;;;;5.37;3.05;;;;;;;-4.87;68.32;99985.53;1810596;79;21532;-59
2023/03/29 02:29:06;;;;;;;;;;;;;;;-4.85;66.74;99987.28;1812490;78;20931;-59
2023/03/29 02:31:39;;;;;;;6.20;2.22;;;;;;;-4.85;67.42;99986.00;1807877;79;20185;-58
2023/03/29 02:34:14;;;;;;;6.33;2.60;;;;;;;-4.81;67.24;99989.07;1807663;77;21041;-59
2023/03/29 02:36:45;;;;;;;4.78;2.70;;;;;;;-4.82;67.31;99992.42;1811211;78;21013;-58
2023/03/29 02:39:14;;;;;;;8.48;2.42;;;;;;;-4.77;67.41;99983.19;1809952;79;21014;-59
2023/03/29 02:41:44;;;;;;;4.30;2.27;;;;;;;-4.72;66.98;99983.28;1808030;79;20986;-59
2023/03/29 02:44:13;;;;;;;5.10;2.60;;;;;;;-4.74;66.26;99983.23;1808584;79;20935;-59
2023/03/29 02:46:41;;;;;;;4.58;2.62;;;;;;;-4.79;66.29;99988.69;1807714;79;21069;-59
2023/03/29 02:49:09;;;;;;;5.17;3.05;;;;;;;-4.81;66.33;99981.42;1806433;79;20986;-59
2023/03/29 02:51:37;;;;;;;4.35;2.77;;;;;;;-4.85;66.25;99974.54;1809532;79;20994;-58
2023/03/29 02:54:17;;;;;;;7.05;2.42;;;;;;;-4.85;66.45;99984.73;1805801;79;21505;-59
2023/03/29 02:56:46;;;;;;;4.05;2.20;;;;;;;-4.84;66.46;99975.42;1807015;79;20950;-58
2023/03/29 02:59:13;;;;;;;7.00;3.17;;;;;;;-4.82;66.50;99977.14;1809831;79;20950;-57
2023/03/29 03:01:41;;;;;;;5.37;2.85;;;;;;;-4.84;66.48;99975.00;1807348;78;20991;-59
2023/03/29 03:04:09;;;;;;;4.15;2.87;;;;;;;-4.86;66.54;99974.53;1809296;78;21406;-58
2023/03/29 03:06:36;;;;;;;8.13;3.12;;;;;;;-4.90;66.48;99977.44;1806594;78;21022;-59
2023/03/29 03:09:03;;;;;;;;;;;;;;;-4.91;66.59;99980.80;1813485;79;21037;-59
2023/03/29 03:11:30;;;;;;;3.65;2.20;;;;;;;-4.92;66.86;99977.81;1811913;79;20158;-59
2023/03/29 03:13:56;;;;;;;3.75;2.20;;;;;;;-4.93;66.66;99970.98;1807589;78;20991;-59
2023/03/29 03:16:23;;;;;;;5.00;2.42;;;;;;;-4.94;66.73;99971.83;1808526;79;20938;-59
2023/03/29 03:18:50;;;;;;;4.33;2.00;;;;;;;-4.92;66.83;99977.81;1806675;79;20962;-59
2023/03/29 03:21:17;;;;;;;3.70;2.67;;;;;;;-4.91;66.85;99969.76;1806315;79;20919;-59
2023/03/29 03:23:48;;;;;;;;;;;;;;;-4.91;66.94;99968.06;1811419;79;21073;-59
2023/03/29 03:26:14;;;;;;;3.02;2.25;;;;;;;-4.92;67.03;99968.91;1807763;77;20165;-59
2023/03/29 03:28:40;;;;;;;6.62;2.75;;;;;;;-4.91;66.98;99964.24;1809213;78;20969;-59
2023/03/29 03:31:07;;;;;;;5.05;2.37;;;;;;;-4.94;67.05;99962.91;1813596;79;21513;-58
2023/03/29 03:33:33;;;;;;;4.17;2.33;;;;;;;-4.94;67.09;99959.09;1805008;79;21543;-58
2023/03/29 03:36:03;;;;;;;9.83;3.15;;;;;;;-4.93;67.24;99963.34;1802774;79;21001;-59
2023/03/29 03:38:29;;;;;;;6.55;2.80;;;;;;;-5.00;67.04;99970.45;1807856;78;21005;-59
2023/03/29 03:40:57;;;;;;;7.08;3.12;;;;;;;-5.10;66.96;99962.17;1809349;79;22389;-59
2023/03/29 03:43:23;;;;;;;9.30;3.60;;;;;;;-5.19;67.01;99973.03;1807895;79;20954;-58
2023/03/29 03:45:50;;;;;;;8.33;3.50;;;;;;;-5.34;66.77;99971.04;1809696;79;20951;-59
2023/03/29 03:48:17;;;;;;;6.23;2.77;;;;;;;-5.57;66.62;99969.68;1808535;78;21013;-58
2023/03/29 03:50:52;;;;;;;5.80;3.10;;;;;;;-5.68;66.81;99967.78;1808147;79;21672;-58
2023/03/29 03:53:20;;;;;;;8.48;3.50;;;;;;;-5.70;66.98;99977.05;1807912;79;20974;-59
2023/03/29 03:55:51;;;;;;;5.30;2.83;;;;;;;-5.70;67.08;99971.97;1807909;79;20934;-59
2023/03/29 03:58:17;;;;;;;6.85;3.00;;;;;;;-5.70;67.37;99971.97;1806627;79;21005;-59
2023/03/29 04:00:49;;;;;;;7.60;2.97;;;;;;;-5.74;67.27;99968.92;1809712;79;21017;-59
2023/03/29 04:03:16;;;;;;;8.00;3.02;;;;;;;-5.80;67.21;99964.09;1805370;79;20974;-59
2023/03/29 04:05:44;;;;;;;6.10;3.33;;;;;;;-5.85;67.30;99967.41;1808331;78;20985;-59
2023/03/29 04:08:12;;;;;;;6.25;2.62;;;;;;;-5.89;67.26;99967.29;1809235;78;20950;-58
2023/03/29 04:10:39;;;;;;;5.30;2.77;;;;;;;-5.96;67.23;99968.88;1809862;79;20950;-59
2023/03/29 04:13:05;;;;;;;12.47;4.47;;;;;;;-6.02;67.33;99975.48;1806172;78;20950;-58
2023/03/29 04:15:37;;;;;;;9.23;5.37;;;;;;;-6.13;67.11;99976.11;1809111;79;20958;-59
2023/03/29 04:18:01;;;;;;;8.68;5.17;;;;;;;-6.31;67.09;99970.56;1809036;79;20997;-58
2023/03/29 04:20:28;;;;;;;16.85;6.10;;;;;;;-6.37;67.20;99975.50;1807738;78;23164;-58
2023/03/29 04:22:55;;;;;;;7.15;4.35;;;;;;;-6.46;67.41;99970.20;1810027;78;20954;-59
2023/03/29 04:25:21;;;;;;;8.78;4.67;;;;;;;-6.60;67.23;99970.70;1808919;78;21095;-59
2023/03/29 04:27:49;;;;;;;14.63;4.73;;;;;;;-6.64;67.42;99968.89;1809455;78;21004;-58
2023/03/29 04:30:16;;;;;;;14.63;5.20;;;;;;;-6.72;67.44;99971.67;1807881;78;21033;-59
2023/03/29 04:32:50;;;;;;;10.90;5.70;;;;;;;-6.74;67.83;99973.72;1803247;79;21049;-58
2023/03/29 04:35:10;;;;;;;11.25;6.00;;;;;;;-6.80;67.71;99963.84;1801607;77;21025;-58
2023/03/29 04:37:42;;;;;;;14.95;7.33;;;;;;;-6.80;67.96;99966.80;1809294;78;20902;-59
2023/03/29 04:40:13;;;;;;;12.05;7.10;;;;;;;-6.80;68.13;99961.72;1807839;78;21012;-59
2023/03/29 04:42:46;;;;;;;13.28;7.35;;;;;;;-6.77;68.13;99969.41;1807134;78;21001;-59
2023/03/29 04:45:10;;;;;;;13.85;6.80;;;;;;;-6.72;67.96;99969.13;1805308;77;21017;-58
2023/03/29 04:47:38;;;;;;;;;;;;;;;-6.71;67.85;99967.03;1810969;77;21020;-58
2023/03/29 04:50:07;;;;;;;21.37;9.35;;;;;;;-6.69;68.49;99961.59;1808548;78;20224;-59
2023/03/29 04:52:34;;;;;;;11.60;6.40;;;;;;;-6.66;68.12;99964.20;1800504;78;21966;-59
2023/03/29 04:55:01;;;;;;;11.30;6.05;;;;;;;-6.56;68.10;99962.33;1801817;78;20993;-59
2023/03/29 04:57:29;;;;;;;8.33;4.97;;;;;;;-6.50;68.31;99959.50;1799597;79;21006;-58
2023/03/29 04:59:56;;;;;;;11.45;6.08;;;;;;;-6.38;68.37;99956.02;1801659;79;20978;-58
2023/03/29 05:02:23;;;;;;;10.43;4.97;;;;;;;-6.24;68.84;99944.49;1802999;79;20954;-60
2023/03/29 05:04:50;;;;;;;9.58;5.78;;;;;;;-6.11;68.17;99946.89;1805105;79;20959;-58
2023/03/29 05:07:18;;;;;;;11.33;4.83;;;;;;;-6.01;68.64;99944.17;1802705;79;21029;-59
2023/03/29 05:09:45;;;;;;;10.43;5.55;;;;;;;-5.96;68.42;99948.95;1799940;78;21441;-59
2023/03/29 05:12:11;;;;;;;14.30;6.87;;;;;;;-5.98;67.73;99952.72;1803279;78;21036;-58
2023/03/29 05:14:37;;;;;;;14.53;5.60;;;;;;;-5.97;67.88;99959.52;1802744;78;21048;-59
2023/03/29 05:17:05;;;;;;;15.83;6.50;;;;;;;-5.91;68.36;99959.64;1810312;77;21502;-58
2023/03/29 05:19:32;;;;;;;13.22;5.40;;;;;;;-5.76;68.48;99956.58;1812132;78;20986;-58
2023/03/29 05:21:58;;;;;;;9.95;5.85;;;;;;;-5.52;68.99;99957.92;1808697;78;21020;-60
2023/03/29 05:24:25;;;;;;;12.05;6.85;;;;;;;-5.25;69.10;99958.50;1819522;77;20986;-59
2023/03/29 05:26:51;;;;;;;10.93;6.37;;;;;;;-5.01;69.42;99953.45;1792427;78;21539;-58
2023/03/29 05:29:18;;;;;;;14.90;7.70;;;;;;;-4.85;69.04;99951.62;1780462;79;20920;-59
2023/03/29 05:31:44;;;;;;;13.03;6.60;;;;;;;-4.67;69.20;99954.08;1808305;79;21072;-60
2023/03/29 05:34:12;;;;;;;9.73;6.42;;;;;;;-4.41;69.31;99942.63;1789260;78;21452;-58
2023/03/29 05:36:38;;;;;;;11.18;5.40;;;;;;;-4.20;69.36;99944.69;1821485;77;20997;-58
2023/03/29 05:39:05;;;;;;;10.43;4.90;;;;;;;-3.92;69.64;99947.23;1826393;78;21011;-59
2023/03/29 05:41:32;;;;;;;10.82;5.97;;;;;;;-3.59;69.76;99940.87;1782971;79;21070;-60
2023/03/29 05:43:58;;;;;;;11.38;7.25;;;;;;;-3.22;69.80;99949.88;1806299;78;21062;-61
2023/03/29 05:46:27;;;;;;;11.40;6.65;;;;;;;-2.95;69.51;99944.20;1810283;77;21716;-59
2023/03/29 05:48:54;;;;;;;13.70;6.80;;;;;;;-2.84;68.85;99946.02;1799204;78;21028;-60
2023/03/29 05:51:23;;;;;;;9.55;6.28;;;;;;;-2.86;68.70;99942.59;1809852;78;21104;-60
2023/03/29 05:53:48;;;;;;;12.05;7.17;;;;;;;-2.87;68.70;99931.94;1811364;77;21002;-60
2023/03/29 05:56:15;;;;;;;13.80;7.28;;;;;;;-2.66;69.00;99948.78;1804891;77;20949;-59
2023/03/29 05:58:42;;;;;;;14.87;6.85;;;;;;;-2.27;69.77;99942.28;1804607;77;21023;-60
2023/03/29 06:01:13;;;;;;;14.50;6.37;;;;;;;-1.82;69.86;99933.22;1811311;77;21046;-61
2023/03/29 06:03:40;;;;;;;10.28;6.03;;;;;;;-1.43;69.68;99929.17;1805922;77;21042;-59
2023/03/29 06:06:07;;;;;;;12.85;6.90;;;;;;;-1.06;69.78;99919.09;1788017;78;21019;-60
2023/03/29 06:08:37;;;;;;;12.47;6.42;;;;;;;-0.75;69.60;99923.43;1801061;78;21515;-61
2023/03/29 06:11:09;;;;;;;24.57;9.00;;;;;;;-0.42;69.64;99921.77;1798386;78;21005;-61
2023/03/29 06:13:42;;;;;;;12.30;6.85;;;;;;;-0.08;69.81;99920.04;1795076;78;21058;-60
2023/03/29 06:16:07;;;;;;;21.57;10.82;;;;;;;0.25;69.64;99919.97;1787473;78;21033;-60
2023/03/29 06:18:38;;;;;;;23.07;10.72;;;;;;;0.53;69.40;99924.17;1777024;79;20993;-58
2023/03/29 06:21:06;;;;;;;18.92;7.95;;;;;;;0.83;69.46;99919.78;1795331;78;20973;-58
2023/03/29 06:23:35;;;;;;;15.93;6.03;;;;;;;1.10;69.25;99922.22;1793787;78;21055;-60
2023/03/29 06:26:01;;;;;;;11.45;5.42;;;;;;;1.25;68.93;99920.42;1793105;78;20985;-61
2023/03/29 06:28:27;;;;;;;15.45;6.05;;;;;;;1.48;69.05;99922.39;1795613;78;20990;-60
2023/03/29 06:30:55;;;;;;;24.45;6.15;;;;;;;1.67;68.33;99918.41;1793247;78;20989;-60
2023/03/29 06:33:24;;;;;;;11.43;6.03;;;;;;;1.90;68.37;99913.91;1811679;77;21080;-59
2023/03/29 06:35:50;;;;;;;10.08;5.17;;;;;;;2.11;67.32;99915.89;1817093;77;21024;-59
2023/03/29 06:38:17;;;;;;;12.93;5.20;;;;;;;2.26;66.95;99911.85;1815639;77;21008;-61
2023/03/29 06:40:43;;;;;;;8.68;5.10;;;;;;;2.50;67.00;99913.32;1813628;77;21043;-60
2023/03/29 06:43:10;;;;;;;11.22;4.53;;;;;;;2.76;67.26;99910.42;1818882;77;21018;-60
2023/03/29 06:45:38;;;;;;;7.58;4.65;;;;;;;2.96;64.99;99894.69;1814182;78;21002;-60
2023/03/29 06:48:06;;;;;;;16.10;4.60;;;;;;;3.11;66.02;99885.91;1821442;77;21477;-60
2023/03/29 06:50:33;;;;;;;14.10;7.60;;;;;;;3.43;66.10;99876.83;1777271;79;20989;-60
2023/03/29 06:53:00;;;;;;;12.78;7.22;;;;;;;3.77;65.52;99876.67;1803258;78;20937;-60
2023/03/29 06:55:27;;;;;;;16.30;9.30;;;;;;;4.00;65.85;99870.25;1802600;79;20974;-60
2023/03/29 06:57:54;;;;;;;24.75;16.02;;;;;;;4.59;66.39;99869.53;1793897;78;21450;-60
2023/03/29 07:00:27;;;;;;;92.22;83.10;;;;;;;4.59;66.39;99869.53;1785291;79;20971;-60
2023/03/29 07:02:55;;;;;;;26.90;22.15;;;;;;;4.96;63.11;99866.19;1820967;77;20924;-60
2023/03/29 07:05:22;;;;;;;10.85;6.53;;;;;;;5.30;65.25;99868.02;1818426;77;20999;-60
2023/03/29 07:07:52;;;;;;;16.20;5.10;;;;;;;5.68;63.17;99863.63;1818960;77;21024;-60
2023/03/29 07:10:22;;;;;;;17.30;5.85;;;;;;;6.35;64.64;99856.70;1776702;79;21021;-60
2023/03/29 07:12:50;;;;;;;12.23;5.00;;;;;;;7.03;65.18;99856.03;1815232;77;20953;-60
2023/03/29 07:15:17;;;;;;;16.30;5.15;;;;;;;7.50;64.12;99853.23;1810888;77;20924;-60
2023/03/29 07:17:43;;;;;;;11.13;4.77;;;;;;;8.03;64.60;99849.73;1808577;77;21064;-61
2023/03/29 07:20:14;;;;;;;10.70;5.25;;;;;;;8.69;66.54;99848.24;1818406;77;21266;-61
2023/03/29 07:22:42;;;;;;;11.00;5.75;;;;;;;9.95;65.90;99850.19;1815764;77;20930;-60
2023/03/29 07:25:11;;;;;;;8.20;4.62;;;;;;;9.95;65.90;99850.19;1817871;78;21021;-61
2023/03/29 07:27:39;;;;;;;12.30;4.42;;;;;;;10.47;66.45;99839.66;1821848;78;20996;-61
2023/03/29 07:30:12;;;;;;;6.85;3.75;;;;;;;11.09;67.11;99846.82;1819841;77;21330;-62
2023/03/29 07:32:38;;;;;;;5.15;3.15;;;;;;;11.70;67.06;99840.35;1774244;78;21566;-61
2023/03/29 07:35:06;;;;;;;5.75;2.20;;;;;;;12.29;61.48;99838.25;1815395;77;20997;-61
2023/03/29 07:37:35;;;;;;;4.53;2.00;;;;;;;12.59;66.19;99843.64;1815113;77;20972;-60
2023/03/29 07:40:08;;;;;;;8.08;2.30;;;;;;;13.19;66.20;99841.22;1809891;77;21091;-60
2023/03/29 07:42:32;;;;;;;4.90;2.25;;;;;;;13.36;64.28;99842.92;1810307;77;21544;-61
2023/03/29 07:44:58;;;;;;;4.58;2.30;;;;;;;14.01;64.18;99837.39;1807235;77;21483;-60
2023/03/29 07:47:25;;;;;;;5.20;2.67;;;;;;;14.60;64.24;99836.52;1817415;77;20954;-61
2023/03/29 07:49:52;;;;;;;6.10;2.22;;;;;;;15.02;64.56;99833.44;1818086;77;21045;-61
2023/03/29 07:52:18;;;;;;;6.62;2.90;;;;;;;15.43;62.66;99835.55;1816593;77;20978;-61
2023/03/29 07:54:44;;;;;;;5.63;3.27;;;;;;;15.73;61.40;99829.21;1817241;77;21598;-61
2023/03/29 07:57:11;;;;;;;4.72;2.98;;;;;;;15.86;59.65;99830.08;1820363;77;21418;-60
2023/03/29 07:59:37;;;;;;;4.28;2.80;;;;;;;16.25;55.60;99828.31;1803867;77;21444;-60
2023/03/29 08:02:03;;;;;;;7.03;3.40;;;;;;;16.68;60.83;99833.20;1812041;77;21377;-60
2023/03/29 08:04:30;;;;;;;4.97;2.50;;;;;;;17.37;61.71;99824.78;1779755;79;20978;-58
2023/03/29 08:06:57;;;;;;;5.28;3.40;;;;;;;17.87;60.52;99828.11;1815134;77;21014;-61
2023/03/29 08:09:24;;;;;;;3.87;2.33;;;;;;;17.99;61.24;99827.16;1814121;77;20899;-59
2023/03/29 08:11:51;;;;;;;5.00;2.95;;;;;;;18.59;57.27;99830.44;1815240;77;20891;-60
2023/03/29 08:14:17;;;;;;;4.87;2.65;;;;;;;18.75;56.71;99830.11;1812322;77;20997;-59
2023/03/29 08:16:43;;;;;;;4.00;2.50;;;;;;;18.46;51.42;99835.87;1813462;77;20946;-60
2023/03/29 08:19:13;;;;;;;5.00;2.67;;;;;;;18.70;59.11;99829.11;1822937;77;21461;-60
2023/03/29 08:21:39;;;;;;;3.27;2.55;;;;;;;19.66;59.39;99824.91;1787512;78;21016;-61
2023/03/29 08:24:06;;;;;;;5.85;2.67;;;;;;;20.86;60.82;99821.29;1813510;77;21013;-60
2023/03/29 08:26:33;;;;;;;;;;;;;;;21.41;55.90;99823.02;1815402;77;21013;-61
2023/03/29 08:28:59;;;;;;;3.27;2.25;;;;;;;21.46;50.80;99818.13;1815663;77;20256;-60
2023/03/29 08:31:27;;;;;;;5.92;2.50;;;;;;;21.46;56.84;99823.44;1821210;77;21097;-61
2023/03/29 08:33:53;;;;;;;5.53;2.65;;;;;;;22.10;57.13;99821.47;1819949;77;20994;-61
2023/03/29 08:36:19;;;;;;;3.30;2.40;;;;;;;22.63;56.62;99821.84;1824113;77;20939;-60
2023/03/29 08:38:46;;;;;;;3.05;2.40;;;;;;;23.10;45.89;99813.76;1794413;78;21099;-61
2023/03/29 08:41:22;;;;;;;4.42;2.37;;;;;;;22.97;54.25;99809.65;1813480;77;21004;-61
2023/03/29 08:43:51;;;;;;;4.53;2.33;;;;;;;22.89;53.33;99814.85;1811235;77;21081;-61
2023/03/29 08:46:44;;;;;;;3.62;2.60;;;;;;;22.56;54.13;99809.13;1786800;78;21049;-61
2023/03/29 08:49:11;;;;;;;4.65;2.90;;;;;;;23.60;56.61;99805.23;1817571;78;21579;-62
2023/03/29 08:51:44;;;;;;;3.52;2.50;;;;;;;24.35;51.77;99799.75;1811190;77;20938;-57
2023/03/29 08:54:23;;;;;;;8.08;4.35;;;;;;;23.90;51.66;99799.48;1813278;77;21060;-59
2023/03/29 08:56:56;;;;;;;7.15;2.75;;;;;;;23.67;49.38;99800.47;1812176;78;20963;-58
2023/03/29 08:59:28;;;;;;;4.08;2.62;;;;;;;23.23;51.53;99803.58;1805724;78;21460;-58
2023/03/29 09:01:57;;;;;;;4.40;2.83;;;;;;;24.28;52.12;99793.87;1812240;78;21049;-57
2023/03/29 09:04:30;;;;;;;5.40;3.17;;;;;;;24.77;51.30;99794.94;1812031;77;20987;-58
2023/03/29 09:06:57;;;;;;;10.60;3.37;;;;;;;25.26;52.78;99796.07;1809720;77;21061;-57
2023/03/29 09:09:27;;;;;;;3.92;2.72;;;;;;;26.42;52.53;99796.63;1814902;78;21507;-58
2023/03/29 09:12:11;;;;;;;8.35;2.98;;;;;;;26.19;48.48;99795.71;1811736;77;20918;-58
2023/03/29 09:14:56;;;;;;;6.65;3.27;;;;;;;25.96;47.83;99804.43;1821888;77;21096;-57
2023/03/29 09:17:32;;;;;;;4.72;3.25;;;;;;;26.37;50.41;99793.63;1812134;77;20942;-58
2023/03/29 09:20:27;;;;;;;4.78;2.75;;;;;;;26.76;48.91;99794.16;1810243;77;21571;-57
2023/03/29 09:23:02;;;;;;;;;;;;;;;27.49;48.27;99800.08;1787317;78;22054;-59
2023/03/29 09:25:46;;;;;;;3.20;2.17;;;;;;;27.91;47.26;99789.34;1808768;77;20188;-60
2023/03/29 09:28:22;;;;;;;4.17;3.00;;;;;;;28.00;49.12;99789.57;1822257;77;21231;-58
2023/03/29 09:31:04;;;;;;;10.80;3.15;;;;;;;28.43;51.05;99785.75;1818364;77;20977;-57
2023/03/29 09:33:46;;;;;;;5.97;2.80;;;;;;;29.06;50.18;99782.91;1821103;77;20989;-60
2023/03/29 09:36:25;;;;;;;4.25;2.37;;;;;;;29.85;49.04;99779.28;1816750;78;21096;-60
2023/03/29 09:38:54;;;;;;;5.55;2.40;;;;;;;29.97;47.34;99781.77;1814650;78;20988;-58
2023/03/29 09:41:33;;;;;;;6.05;2.98;;;;;;;29.36;45.44;99781.45;1815764;77;21547;-58
2023/03/29 09:44:03;;;;;;;7.72;2.70;;;;;;;29.19;46.10;99777.68;1820294;77;21067;-59
2023/03/29 09:46:45;;;;;;;4.65;2.60;;;;;;;29.56;44.35;99775.73;1813482;77;21440;-59
2023/03/29 09:49:16;;;;;;;4.58;2.67;;;;;;;29.52;45.39;99770.43;1823870;77;21111;-58
2023/03/29 09:51:45;;;;;;;3.65;2.20;;;;;;;29.58;40.26;99765.61;1820917;78;21430;-58
2023/03/29 09:54:11;;;;;;;5.90;2.50;;;;;;;29.31;40.59;99767.75;1816980;77;21002;-58
2023/03/29 09:56:38;;;;;;;5.55;2.50;;;;;;;29.92;43.48;99766.72;1822417;77;21018;-58
2023/03/29 09:59:06;;;;;;;3.95;1.95;;;;;;;30.02;39.87;99756.92;1818654;77;21040;-58
2023/03/29 10:01:38;;;;;;;7.00;2.05;;;;;;;28.58;35.56;99762.41;1822218;77;20985;-57
2023/03/29 10:04:09;;;;;;;3.67;2.55;;;;;;;28.27;38.54;99765.29;1822589;77;20957;-58
2023/03/29 10:06:38;;;;;;;6.58;2.45;;;;;;;29.52;36.78;99748.05;1776050;79;21038;-57
2023/03/29 10:09:09;;;;;;;7.22;2.52;;;;;;;29.85;39.24;99753.71;1808081;78;21497;-57
2023/03/29 10:11:37;;;;;;;2.08;1.50;;;;;;;29.68;39.09;99749.15;1826394;77;20949;-56
2023/03/29 10:14:13;;;;;;;2.87;1.50;;;;;;;29.53;35.66;99749.73;1828448;77;20904;-58
2023/03/29 10:16:43;;;;;;;2.95;1.40;;;;;;;29.35;29.39;99744.81;1788038;78;21436;-57
2023/03/29 10:19:22;;;;;;;3.00;1.60;;;;;;;27.60;32.68;99747.35;1825606;77;21468;-59
2023/03/29 10:21:51;;;;;;;2.47;1.65;;;;;;;26.85;29.27;99744.88;1827213;77;21020;-57
2023/03/29 10:24:28;;;;;;;3.72;1.75;;;;;;;26.67;32.76;99743.00;1786018;78;21026;-57
2023/03/29 10:26:58;;;;;;;5.03;4.28;;;;;;;26.87;28.61;99744.20;1811999;78;21654;-59
2023/03/29 10:29:26;;;;;;;4.33;1.62;;;;;;;25.73;30.73;99740.09;1814638;76;21075;-57
2023/03/29 10:31:53;;;;;;;4.28;2.00;;;;;;;25.76;33.05;99724.20;1821240;77;20977;-58
2023/03/29 10:34:24;;;;;;;2.60;1.52;;;;;;;24.82;31.53;99726.87;1776997;79;21549;-57
2023/03/29 10:36:57;;;;;;;4.75;2.30;;;;;;;25.28;33.49;99724.09;1812900;77;21177;-57
2023/03/29 10:39:26;;;;;;;6.83;2.75;;;;;;;25.45;32.93;99719.06;1813436;77;21060;-57
2023/03/29 10:41:53;;;;;;;2.92;2.15;;;;;;;25.15;33.77;99715.26;1809716;77;21056;-57
2023/03/29 10:44:29;;;;;;;2.37;1.40;;;;;;;24.19;31.35;99712.96;1812236;77;20988;-57
2023/03/29 10:46:55;;;;;;;2.90;1.57;;;;;;;22.49;32.21;99717.60;1816466;77;21056;-57
2023/03/29 10:49:24;;;;;;;3.02;1.47;;;;;;;20.57;27.20;99729.20;1813890;77;21390;-57
2023/03/29 10:51:52;;;;;;;2.42;1.80;;;;;;;18.62;28.77;99731.52;1812518;78;21480;-57
2023/03/29 10:54:21;;;;;;;2.50;1.37;;;;;;;17.74;31.30;99728.29;1812750;78;21100;-59
2023/03/29 10:56:57;;;;;;;2.45;1.25;;;;;;;17.16;30.95;99719.84;1814135;77;21017;-59
2023/03/29 10:59:41;;;;;;;3.42;1.40;;;;;;;15.96;28.88;99724.95;1812912;77;21501;-59
2023/03/29 11:02:17;;;;;;;2.25;1.70;;;;;;;15.00;30.22;99727.03;1817907;77;21080;-59
2023/03/29 11:05:00;;;;;;;5.92;2.10;;;;;;;14.57;30.51;99726.34;1812666;78;20961;-60
2023/03/29 11:07:32;;;;;;;6.37;3.27;;;;;;;14.18;30.51;99721.31;1813017;77;21051;-59
2023/03/29 11:10:15;;;;;;;3.35;1.50;;;;;;;14.06;31.77;99713.25;1815368;77;21017;-60
2023/03/29 11:13:00;;;;;;;2.30;1.22;;;;;;;14.10;30.89;99710.80;1814716;77;20973;-60
2023/03/29 11:15:41;;;;;;;1.50;1.40;;;;;;;13.71;30.65;99708.84;1817688;77;21381;-60
2023/03/29 11:18:26;;;;;;;3.42;1.42;;;;;;;13.25;31.34;99708.06;1817424;77;20954;-61
2023/03/29 11:21:00;;;;;;;1.98;1.30;;;;;;;13.33;31.96;99711.11;1815290;77;21008;-60
2023/03/29 11:23:45;;;;;;;3.35;1.50;;;;;;;13.76;32.06;99702.01;1812300;78;21203;-60
2023/03/29 11:26:28;;;;;;;7.03;2.02;;;;;;;14.05;32.63;99695.80;1786565;78;21083;-60
2023/03/29 11:29:08;;;;;;;2.20;1.10;;;;;;;14.26;31.22;99698.88;1789244;78;21006;-60
2023/03/29 11:31:38;;;;;;;3.50;1.30;;;;;;;13.83;31.71;99690.19;1784551;78;20982;-60
2023/03/29 11:34:26;;;;;;;3.30;1.42;;;;;;;13.78;31.97;99688.30;1786666;78;21567;-60
2023/03/29 11:37:02;;;;;;;3.27;1.82;;;;;;;14.06;33.01;99685.69;1779246;79;21033;-60
2023/03/29 11:39:46;;;;;;;4.10;1.50;;;;;;;14.35;32.76;99687.42;1778705;79;21027;-61
2023/03/29 11:42:16;;;;;;;2.72;1.35;;;;;;;14.15;33.04;99686.06;1781486;78;20966;-61
2023/03/29 11:44:47;;;;;;;12.55;2.20;;;;;;;13.83;33.11;99681.00;1723000;81;21118;-61
2023/03/29 11:47:20;;;;;;;4.00;1.60;;;;;;;13.63;33.32;99685.67;1749583;81;20971;-61